Time;durP1;ratioP1;P1;durP2;ratioP2;P2;SDS_P1;SDS_P2;PMS_P1;PMS_P2;Temp;Humidity;BMP_temperature;BMP_pressure;BME280_temperature;BME280_humidity;BME280_pressure;Samples;Min_cycle;Max_cycle;Signal;HPM_P1;HPM_P2
2022/05/24 00:01:19;;;;;;;;;3.33;3.33;;;;;16.82;100.00;100240.44;4950784;28;57518;-71
2022/05/24 00:03:45;;;;;;;;;3.00;3.00;;;;;16.79;100.00;100237.00;4947276;28;54072;-71
2022/05/24 00:06:11;;;;;;;;;4.33;3.00;;;;;16.73;100.00;100230.00;4941537;28;45482;-72
2022/05/24 00:08:36;;;;;;;;;3.00;3.00;;;;;16.65;100.00;100226.59;4940712;28;47257;-71
2022/05/24 00:11:01;;;;;;;;;2.00;2.00;;;;;16.56;100.00;100226.81;4948424;28;63333;-72
2022/05/24 00:13:27;;;;;;;;;4.00;3.00;;;;;16.49;100.00;100237.63;4947055;28;45515;-72
2022/05/24 00:15:52;;;;;;;;;2.67;2.67;;;;;16.41;100.00;100236.06;4946548;28;52774;-71
2022/05/24 00:18:23;;;;;;;;;3.33;3.00;;;;;16.34;100.00;100248.63;4949937;28;47028;-71
2022/05/24 00:20:54;;;;;;;;;6.00;2.00;;;;;16.30;100.00;100264.69;4943860;28;45234;-71
2022/05/24 00:23:21;;;;;;;;;3.00;3.00;;;;;16.26;100.00;100265.69;4949405;28;45636;-71
2022/05/24 00:25:49;;;;;;;;;5.00;3.33;;;;;16.21;100.00;100281.78;4950887;28;45297;-71
2022/05/24 00:28:16;;;;;;;;;3.00;3.00;;;;;16.18;100.00;100281.81;4956890;28;46770;-71
2022/05/24 00:30:44;;;;;;;;;2.00;2.00;;;;;16.18;100.00;100290.69;4951876;28;45514;-72
2022/05/24 00:33:09;;;;;;;;;5.00;2.00;;;;;16.17;100.00;100282.75;4955773;28;45440;-71
2022/05/24 00:35:35;;;;;;;;;4.00;2.00;;;;;16.12;100.00;100276.63;4955469;28;48606;-71
2022/05/24 00:38:01;;;;;;;;;4.00;4.00;;;;;16.13;100.00;100279.25;4951176;28;46763;-71
2022/05/24 00:40:44;;;;;;;;;3.00;3.00;;;;;16.12;100.00;100272.19;4957119;28;45233;-70
2022/05/24 00:43:19;;;;;;;;;2.00;2.00;;;;;16.12;100.00;100273.97;4957915;28;45623;-71
2022/05/24 00:45:48;;;;;;;;;3.00;3.00;;;;;16.12;100.00;100265.97;4942001;28;45337;-72
2022/05/24 00:48:28;;;;;;;;;2.00;2.00;;;;;16.12;100.00;100253.53;4953480;28;46302;-71
2022/05/24 00:50:54;;;;;;;;;4.67;2.00;;;;;16.15;100.00;100247.28;4935749;28;45431;-72
2022/05/24 00:53:27;;;;;;;;;3.00;3.00;;;;;16.13;100.00;100265.94;4937043;28;45501;-70
2022/05/24 00:56:03;;;;;;;;;4.00;3.00;;;;;16.12;100.00;100264.19;4957689;28;45643;-71
2022/05/24 00:58:47;;;;;;;;;4.00;2.00;;;;;16.10;100.00;100258.03;4937368;28;47571;-72
2022/05/24 01:01:40;;;;;;;;;2.00;2.00;;;;;16.09;100.00;100263.41;4943845;28;45297;-71
2022/05/24 01:04:10;;;;;;;;;2.00;2.00;;;;;16.06;100.00;100263.44;4952225;28;45458;-71
2022/05/24 01:06:36;;;;;;;;;3.00;2.00;;;;;16.04;100.00;100254.63;4945306;28;45275;-72
2022/05/24 01:09:05;;;;;;;;;3.00;2.00;;;;;16.00;100.00;100259.13;4956779;28;47686;-71
2022/05/24 01:11:36;;;;;;;;;3.00;2.00;;;;;15.99;100.00;100265.34;4956195;28;45624;-72
2022/05/24 01:14:02;;;;;;;;;4.67;2.00;;;;;15.94;100.00;100268.13;4955778;28;45500;-71
2022/05/24 01:16:27;;;;;;;;;2.00;2.00;;;;;15.90;100.00;100268.19;4940158;28;45698;-71
2022/05/24 01:18:53;;;;;;;;;2.00;2.00;;;;;15.91;100.00;100270.81;4954991;28;47411;-71
2022/05/24 01:21:19;;;;;;;;;2.67;1.33;;;;;15.91;100.00;100269.94;4950138;28;63655;-71
2022/05/24 01:23:56;;;;;;;;;2.67;2.33;;;;;15.90;100.00;100271.72;4957141;28;45359;-71
2022/05/24 01:26:40;;;;;;;;;3.00;3.00;;;;;15.90;100.00;100273.53;4953301;28;45415;-71
2022/05/24 01:29:07;;;;;;;;;2.00;2.00;;;;;15.88;100.00;100270.03;4947562;28;45458;-71
2022/05/24 01:37:07;;;;;;;;;3.00;1.00;;;;;15.75;100.00;100256.06;4942122;28;45270;-71
2022/05/24 01:39:32;;;;;;;;;5.33;3.00;;;;;15.76;100.00;100265.78;4943339;28;46632;-71
2022/05/24 01:41:58;;;;;;;;;2.00;2.00;;;;;15.76;100.00;100268.47;4941024;28;45202;-71
2022/05/24 01:44:54;;;;;;;;;3.00;1.00;;;;;15.77;100.00;100274.69;4953308;28;45430;-71
2022/05/24 01:47:21;;;;;;;;;3.00;2.00;;;;;15.77;100.00;100272.03;4940570;28;45426;-72
2022/05/24 01:49:49;;;;;;;;;3.00;2.00;;;;;15.77;100.00;100277.34;4956861;28;45763;-72
2022/05/24 01:52:20;;;;;;;;;1.00;1.00;;;;;15.78;100.00;100287.97;4926491;28;45718;-71
2022/05/24 01:54:49;;;;;;;;;1.00;1.00;;;;;15.76;100.00;100280.88;4932701;28;45584;-70
2022/05/24 01:57:21;;;;;;;;;4.33;1.33;;;;;15.74;100.00;100282.72;4923544;28;45567;-71
2022/05/24 01:59:49;;;;;;;;;3.67;1.00;;;;;15.73;100.00;100295.16;4930387;28;46249;-72
2022/05/24 02:02:15;;;;;;;;;1.00;1.00;;;;;15.73;100.00;100287.16;4932152;28;45326;-71
2022/05/24 02:04:41;;;;;;;;;1.00;1.00;;;;;15.74;100.00;100288.03;4951424;28;45268;-72
2022/05/24 02:07:18;;;;;;;;;2.33;1.00;;;;;15.74;100.00;100286.25;4958024;28;45315;-71
2022/05/24 02:09:47;;;;;;;;;1.33;1.33;;;;;15.70;100.00;100282.75;4959544;28;46113;-72
2022/05/24 02:12:23;;;;;;;;;1.00;1.00;;;;;15.59;100.00;100284.72;4959906;28;45473;-71
2022/05/24 02:15:14;;;;;;;;;0.00;0.00;;;;;15.49;100.00;100288.44;4952636;28;45327;-71
2022/05/24 02:17:51;;;;;;;;;0.67;0.67;;;;;15.40;100.00;100280.66;4958332;28;45597;-71
2022/05/24 02:20:46;;;;;;;;;2.00;1.00;;;;;15.41;100.00;100285.06;4959878;28;46179;-72
2022/05/24 02:23:14;;;;;;;;;4.00;2.00;;;;;15.39;100.00;100289.50;4943166;28;45464;-71
2022/05/24 02:25:45;;;;;;;;;1.33;1.33;;;;;15.37;100.00;100289.53;4955145;28;45449;-71
2022/05/24 02:28:12;;;;;;;;;1.00;1.00;;;;;15.38;100.00;100285.09;4950656;28;45324;-70
2022/05/24 02:30:48;;;;;;;;;1.00;1.00;;;;;15.35;100.00;100286.03;4959498;28;46321;-72
2022/05/24 02:33:13;;;;;;;;;4.00;1.00;;;;;15.32;100.00;100295.84;4958968;28;45446;-71
2022/05/24 02:35:39;;;;;;;;;2.67;1.00;;;;;15.29;100.00;100301.25;4959187;28;56989;-71
2022/05/24 02:38:05;;;;;;;;;3.67;2.00;;;;;15.27;100.00;100297.72;4951176;28;48943;-72
2022/05/24 02:43:15;;;;;;;;;2.00;1.67;;;;;15.28;100.00;100291.47;4949103;28;45301;-71
2022/05/24 02:45:40;;;;;;;;;2.33;1.00;;;;;15.28;100.00;100295.00;4952838;28;59474;-71
2022/05/24 02:48:06;;;;;;;;;1.33;1.33;;;;;15.28;100.00;100294.13;4951116;28;45362;-71
2022/05/24 02:50:31;;;;;;;;;1.00;1.00;;;;;15.27;100.00;100297.72;4959315;28;47371;-73
2022/05/24 02:52:57;;;;;;;;;1.00;1.00;;;;;15.24;100.00;100300.44;4951490;28;45395;-72
2022/05/24 02:55:22;;;;;;;;;1.00;1.00;;;;;15.26;100.00;100295.97;4953336;28;58755;-71
2022/05/24 02:57:48;;;;;;;;;5.00;1.00;;;;;15.24;100.00;100298.66;4958994;28;53192;-72
2022/05/24 03:00:17;;;;;;;;;2.00;1.00;;;;;15.19;100.00;100305.81;4948523;28;45727;-71
2022/05/24 03:02:42;;;;;;;;;3.00;2.00;;;;;15.19;100.00;100306.69;4951784;28;45264;-71
2022/05/24 03:05:10;;;;;;;;;1.00;1.00;;;;;15.18;100.00;100312.06;4945606;28;45470;-71
2022/05/24 03:10:21;;;;;;;;;1.00;1.00;;;;;15.19;100.00;100306.69;4950769;28;45693;-71
2022/05/24 03:15:30;;;;;;;;;2.33;1.00;;;;;15.19;100.00;100320.00;4958898;28;45432;-71
2022/05/24 03:17:56;;;;;;;;;1.00;1.00;;;;;15.20;100.00;100321.75;4957391;28;45522;-71
2022/05/24 03:20:21;;;;;;;;;4.00;2.00;;;;;15.19;100.00;100320.00;4955941;28;64718;-71
2022/05/24 03:22:47;;;;;;;;;1.33;1.00;;;;;15.18;100.00;100320.03;4948014;28;57078;-71
2022/05/24 03:25:13;;;;;;;;;2.33;1.00;;;;;15.14;100.00;100324.50;4954137;28;45566;-71
2022/05/24 03:27:38;;;;;;;;;4.67;2.00;;;;;15.15;100.00;100330.69;4956667;28;45656;-72
2022/05/24 03:30:04;;;;;;;;;1.00;1.00;;;;;15.15;100.00;100338.69;4951397;28;46108;-71
2022/05/24 03:32:29;;;;;;;;;1.00;1.00;;;;;15.12;100.00;100350.22;4947808;28;45276;-71
2022/05/24 03:34:55;;;;;;;;;2.00;1.00;;;;;15.10;100.00;100344.06;4955569;28;54856;-71
2022/05/24 03:37:21;;;;;;;;;3.00;1.00;;;;;15.08;100.00;100345.88;4952296;28;54812;-70
2022/05/24 03:39:46;;;;;;;;;2.00;2.00;;;;;15.05;100.00;100345.03;4948390;28;46309;-70
2022/05/24 03:42:13;;;;;;;;;2.00;2.00;;;;;15.04;100.00;100349.47;4952418;28;45840;-71
2022/05/24 03:44:38;;;;;;;;;5.00;1.00;;;;;14.98;100.00;100338.94;4952391;28;45540;-71
2022/05/24 03:47:05;;;;;;;;;2.00;1.00;;;;;14.94;100.00;100350.53;4942769;28;45304;-71
2022/05/24 03:49:30;;;;;;;;;1.67;1.67;;;;;14.87;100.00;100365.69;4943774;28;46177;-71
2022/05/24 03:51:55;;;;;;;;;5.00;1.67;;;;;14.84;100.00;100363.06;4947245;28;58932;-72
2022/05/24 03:54:21;;;;;;;;;3.00;2.00;;;;;14.82;100.00;100370.19;4956169;28;56429;-71
2022/05/24 03:59:31;;;;;;;;;1.00;1.00;;;;;14.78;100.00;100367.59;4945845;28;45373;-71
2022/05/24 04:01:56;;;;;;;;;1.00;1.00;;;;;14.74;100.00;100373.84;4957132;28;45450;-71
2022/05/24 04:04:22;;;;;;;;;1.33;1.00;;;;;14.73;100.00;100375.63;4957814;28;59755;-72
2022/05/24 04:06:47;;;;;;;;;1.67;0.33;;;;;14.71;100.00;100368.56;4957282;28;45448;-71
2022/05/24 04:09:13;;;;;;;;;2.33;1.00;;;;;14.71;100.00;100379.22;4950543;28;46774;-71
2022/05/24 04:11:38;;;;;;;;;2.00;1.00;;;;;14.70;100.00;100380.09;4957519;28;64898;-71
2022/05/24 04:14:04;;;;;;;;;5.00;1.00;;;;;14.71;100.00;100384.53;4948988;28;57679;-72
2022/05/24 04:16:29;;;;;;;;;3.00;1.00;;;;;14.71;100.00;100389.84;4949578;28;53593;-70
2022/05/24 04:18:55;;;;;;;;;3.33;1.00;;;;;14.69;100.00;100387.19;4952961;28;45764;-71
2022/05/24 04:21:20;;;;;;;;;2.00;1.00;;;;;14.67;100.00;100381.88;4955841;28;52610;-72
2022/05/24 04:23:46;;;;;;;;;0.33;0.00;;;;;14.65;100.00;100381.03;4949517;28;45611;-70
2022/05/24 04:26:11;;;;;;;;;0.00;0.00;;;;;14.68;100.00;100386.31;4957415;28;45466;-71
2022/05/24 04:28:36;;;;;;;;;0.00;0.00;;;;;14.67;100.00;100381.88;4949809;28;65569;-71
2022/05/24 04:31:02;;;;;;;;;1.33;1.33;;;;;14.66;100.00;100393.44;4957939;28;45334;-71
2022/05/24 04:33:28;;;;;;;;;0.33;0.33;;;;;14.67;100.00;100386.34;4956725;28;45256;-71
2022/05/24 04:35:55;;;;;;;;;2.00;1.00;;;;;14.68;100.00;100404.03;4957234;28;45344;-72
2022/05/24 04:38:20;;;;;;;;;1.00;1.00;;;;;14.67;100.00;100404.94;4957330;28;47350;-71
2022/05/24 04:43:30;;;;;;;;;1.00;1.00;;;;;14.66;100.00;100408.50;4954856;28;45481;-72
2022/05/24 04:45:56;;;;;;;;;1.33;1.33;;;;;14.64;100.00;100418.25;4949174;28;45696;-71
2022/05/24 04:48:23;;;;;;;;;0.67;0.00;;;;;14.62;100.00;100420.06;4956025;28;47278;-71
2022/05/24 04:50:55;;;;;;;;;1.00;1.00;;;;;14.59;100.00;100426.25;4957494;28;45295;-71
2022/05/24 04:53:21;;;;;;;;;1.00;1.00;;;;;14.58;100.00;100431.59;4949319;28;45500;-71
2022/05/24 04:55:50;;;;;;;;;0.00;0.00;;;;;14.56;100.00;100430.75;4957903;28;45570;-70
2022/05/24 04:58:16;;;;;;;;;1.00;1.00;;;;;14.56;100.00;100439.59;4951371;28;46745;-72
2022/05/24 05:00:42;;;;;;;;;0.33;0.33;;;;;14.57;100.00;100437.81;4944123;28;45344;-70
2022/05/24 05:03:09;;;;;;;;;1.67;1.00;;;;;14.55;100.00;100443.16;4944139;28;45359;-72
2022/05/24 05:05:35;;;;;;;;;1.00;1.00;;;;;14.57;100.00;100449.31;4955812;28;45244;-71
2022/05/24 05:08:00;;;;;;;;;3.00;0.00;;;;;14.58;100.00;100456.41;4955074;28;46533;-71
2022/05/24 05:10:25;;;;;;;;;0.00;0.00;;;;;14.59;100.00;100451.97;4949246;28;45578;-71
2022/05/24 05:12:51;;;;;;;;;0.00;0.00;;;;;14.61;100.00;100455.50;4954229;28;45581;-71
2022/05/24 05:15:16;;;;;;;;;2.00;1.00;;;;;14.62;100.00;100457.25;4945857;28;56641;-71
2022/05/24 05:17:42;;;;;;;;;1.00;1.00;;;;;14.64;100.00;100456.31;4949070;28;47473;-72
2022/05/24 05:20:08;;;;;;;;;1.00;1.00;;;;;14.68;100.00;100458.06;4957159;28;45348;-71
2022/05/24 05:22:33;;;;;;;;;3.33;1.00;;;;;14.72;100.00;100477.50;4955537;28;45276;-71
2022/05/24 05:24:58;;;;;;;;;1.67;1.00;;;;;14.74;100.00;100464.19;4948406;28;54356;-71
2022/05/24 05:27:24;;;;;;;;;1.00;1.00;;;;;14.78;100.00;100476.56;4956751;28;46442;-71
2022/05/24 05:32:33;;;;;;;;;2.00;1.00;;;;;14.80;100.00;100478.28;4950674;28;45458;-72
2022/05/24 05:35:00;;;;;;;;;1.00;1.00;;;;;14.81;100.00;100487.16;4957043;28;45478;-73
2022/05/24 05:37:30;;;;;;;;;1.00;1.00;;;;;14.78;100.00;100482.75;4956936;28;46711;-74
2022/05/24 05:39:56;;;;;;;;;4.00;1.00;;;;;14.78;100.00;100489.84;4939191;28;45429;-73
2022/05/24 05:42:21;;;;;;;;;1.00;1.00;;;;;14.80;100.00;100498.66;4945191;28;45387;-72
2022/05/24 05:44:50;;;;;;;;;1.00;1.00;;;;;14.82;100.00;100492.44;4952916;28;45472;-73
2022/05/24 05:47:17;;;;;;;;;1.00;1.00;;;;;14.82;100.00;100491.56;4944105;28;46544;-73
2022/05/24 05:49:42;;;;;;;;;1.33;0.00;;;;;14.81;100.00;100500.47;4955599;28;45538;-72
2022/05/24 05:52:08;;;;;;;;;1.00;1.00;;;;;14.80;100.00;100498.66;4954973;28;45915;-73
2022/05/24 05:54:33;;;;;;;;;2.33;1.00;;;;;14.80;100.00;100507.53;4947655;28;45544;-74
2022/05/24 05:57:00;;;;;;;;;3.00;1.00;;;;;14.82;100.00;100511.06;4956495;28;47474;-73
2022/05/24 05:59:25;;;;;;;;;3.67;2.00;;;;;14.85;100.00;100515.44;4952120;28;45481;-72
2022/05/24 06:01:50;;;;;;;;;0.67;0.67;;;;;14.86;100.00;100515.44;4949527;28;45183;-72
2022/05/24 06:04:16;;;;;;;;;1.00;1.00;;;;;14.89;100.00;100515.41;4940635;28;56614;-72
2022/05/24 06:06:44;;;;;;;;;3.00;1.00;;;;;14.89;100.00;100512.72;4944672;28;62930;-71
2022/05/24 06:09:09;;;;;;;;;0.33;0.33;;;;;14.86;100.00;100539.38;4954487;28;45413;-74
2022/05/24 06:11:36;;;;;;;;;1.00;1.00;;;;;14.73;100.00;100524.44;4950473;28;46391;-75
2022/05/24 06:14:01;;;;;;;;;1.00;1.00;;;;;14.74;100.00;100527.97;4953337;28;45664;-75
2022/05/24 06:16:27;;;;;;;;;2.00;2.00;;;;;14.62;100.00;100537.84;4944253;28;47468;-75
2022/05/24 06:18:52;;;;;;;;;2.67;1.00;;;;;14.55;100.00;100538.81;4956543;28;45413;-75
2022/05/24 06:21:18;;;;;;;;;2.00;1.00;;;;;14.62;100.00;100552.91;4939449;28;53435;-74
2022/05/24 06:23:43;;;;;;;;;1.67;1.00;;;;;14.59;100.00;100540.53;4952282;28;45549;-74
2022/05/24 06:26:08;;;;;;;;;1.00;1.00;;;;;14.58;100.00;100545.84;4953294;28;61289;-75
2022/05/24 06:28:34;;;;;;;;;2.00;0.00;;;;;14.55;100.00;100541.47;4951843;28;46494;-75
2022/05/24 06:31:00;;;;;;;;;5.00;0.67;;;;;14.51;100.00;100542.38;4953186;28;45487;-73
2022/05/24 06:33:25;;;;;;;;;1.33;1.00;;;;;14.54;100.00;100546.78;4954921;28;45640;-73
2022/05/24 06:35:51;;;;;;;;;1.33;0.00;;;;;14.59;100.00;100547.63;4951801;28;45855;-73
2022/05/24 06:38:16;;;;;;;;;1.00;1.00;;;;;14.60;100.00;100552.06;4953161;28;45380;-74
2022/05/24 06:40:42;;;;;;;;;3.00;2.00;;;;;14.64;100.00;100557.28;4955111;28;45524;-73
2022/05/24 06:43:09;;;;;;;;;7.00;2.00;;;;;14.67;100.00;100556.41;4953566;28;45343;-72
2022/05/24 06:45:34;;;;;;;;;3.00;1.00;;;;;14.73;100.00;100558.13;4951496;28;45956;-74
2022/05/24 06:48:00;;;;;;;;;3.33;1.00;;;;;14.68;100.00;100564.34;4960350;28;45613;-73
2022/05/24 06:50:25;;;;;;;;;2.00;1.00;;;;;14.63;100.00;100555.53;4957642;28;56093;-73
2022/05/24 06:52:56;;;;;;;;;3.00;1.00;;;;;14.64;100.00;100564.38;4957396;28;45386;-73
2022/05/24 06:55:23;;;;;;;;;3.00;0.00;;;;;14.68;100.00;100574.97;4954977;28;58412;-73
2022/05/24 06:57:49;;;;;;;;;2.00;1.00;;;;;14.71;100.00;100578.53;4954483;28;45583;-74
2022/05/24 07:03:04;;;;;;;;;1.00;1.00;;;;;14.87;100.00;100577.47;4955324;28;45546;-74
2022/05/24 07:05:29;;;;;;;;;1.33;0.67;;;;;15.01;100.00;100577.28;4952792;28;46533;-73
2022/05/24 07:07:56;;;;;;;;;3.00;0.00;;;;;15.09;100.00;100578.97;4951621;28;45569;-74
2022/05/24 07:10:21;;;;;;;;;0.00;0.00;;;;;15.15;100.00;100583.34;4957961;28;45465;-74
2022/05/24 07:12:47;;;;;;;;;0.00;0.00;;;;;15.22;100.00;100593.00;4951160;28;45655;-74
2022/05/24 07:15:13;;;;;;;;;2.00;1.00;;;;;15.26;100.00;100596.53;4949308;28;47274;-74
2022/05/24 07:17:38;;;;;;;;;0.33;0.33;;;;;15.25;100.00;100597.44;4953731;28;59606;-74
2022/05/24 07:20:04;;;;;;;;;1.00;1.00;;;;;15.25;100.00;100597.44;4955813;28;45493;-75
2022/05/24 07:22:29;;;;;;;;;2.00;0.00;;;;;15.20;100.00;100590.38;4962254;28;45557;-75
2022/05/24 07:24:55;;;;;;;;;1.00;1.00;;;;;15.21;100.00;100588.59;4955372;28;47207;-75
2022/05/24 07:27:21;;;;;;;;;2.00;2.00;;;;;15.22;100.00;100594.78;4956171;28;53545;-74
2022/05/24 07:29:47;;;;;;;;;2.00;1.00;;;;;15.25;100.00;100597.44;4955717;28;45534;-74
2022/05/24 07:32:13;;;;;;;;;1.00;1.00;;;;;15.31;100.00;100592.03;4957911;28;45462;-74
2022/05/24 07:34:39;;;;;;;;;2.00;1.67;;;;;15.35;100.00;100589.31;4951153;28;47548;-74
2022/05/24 07:37:13;;;;;;;;;1.00;1.00;;;;;15.40;100.00;100587.47;4952822;28;47124;-75
2022/05/24 07:39:39;;;;;;;;;6.00;2.00;;;;;15.44;100.00;100593.63;4954017;28;45559;-74
2022/05/24 07:47:33;;;;;;;;;2.67;1.00;;;;;15.53;100.00;100606.81;4951573;28;45517;-74
2022/05/24 07:49:59;;;;;;;;;0.33;0.33;;;;;15.49;100.00;100590.91;4950755;28;45434;-73
2022/05/24 07:52:24;;;;;;;;;0.00;0.00;;;;;15.67;100.00;100596.03;4958997;28;45573;-75
2022/05/24 07:54:50;;;;;;;;;1.00;1.00;;;;;15.82;100.00;100597.56;4944303;28;47274;-75
2022/05/24 07:57:15;;;;;;;;;1.00;1.00;;;;;15.91;100.00;100598.31;4952688;28;45227;-74
2022/05/24 07:59:43;;;;;;;;;1.00;1.00;;;;;16.02;100.00;100600.84;4957887;28;55969;-74
2022/05/24 08:02:09;;;;;;;;;0.33;0.33;;;;;16.14;100.00;100600.66;4951357;28;45672;-75
2022/05/24 08:04:34;;;;;;;;;1.00;1.00;;;;;16.21;100.00;100597.00;4960249;28;45693;-74
2022/05/24 08:07:00;;;;;;;;;1.00;1.00;;;;;16.30;100.00;100600.41;4950711;28;45561;-75
2022/05/24 08:09:26;;;;;;;;;0.67;0.67;;;;;16.41;100.00;100606.47;4957175;28;45378;-75
2022/05/24 08:11:51;;;;;;;;;0.67;0.00;;;;;16.56;100.00;100597.28;4956107;28;55341;-75
2022/05/24 08:14:16;;;;;;;;;0.00;0.00;;;;;16.62;100.00;100605.19;4954783;28;63619;-74
2022/05/24 08:16:42;;;;;;;;;1.00;0.00;;;;;16.62;100.00;100600.75;4956727;28;60106;-75
2022/05/24 08:19:08;;;;;;;;;1.00;1.00;;;;;16.58;100.00;100607.03;4954271;28;55023;-74
2022/05/24 08:21:34;;;;;;;;;4.00;0.67;;;;;16.64;100.00;100606.06;4946171;28;45446;-75
2022/05/24 08:23:59;;;;;;;;;0.00;0.00;;;;;16.67;100.00;100597.97;4952860;28;45282;-74
2022/05/24 08:26:25;;;;;;;;;0.67;0.33;;;;;16.71;100.00;100610.41;4954892;28;60232;-75
2022/05/24 08:28:51;;;;;;;;;5.00;1.00;;;;;16.72;100.00;100615.72;4955484;28;45431;-74
2022/05/24 08:31:17;;;;;;;;;3.00;0.33;;;;;16.69;100.00;100615.72;4954778;28;45436;-76
2022/05/24 08:33:44;;;;;;;;;4.67;2.00;;;;;16.66;100.00;100607.78;4952279;28;46688;-73
2022/05/24 08:36:10;;;;;;;;;3.67;1.00;;;;;16.60;100.00;100604.34;4954074;28;45665;-74
2022/05/24 08:38:37;;;;;;;;;2.00;0.00;;;;;16.56;100.00;100611.50;4954457;28;45518;-75
2022/05/24 08:41:06;;;;;;;;;0.00;0.00;;;;;16.59;100.00;100602.59;4951469;28;45603;-76
2022/05/24 08:43:54;;;;;;;;;2.00;1.00;;;;;16.63;100.00;100613.19;4940649;28;46607;-75
2022/05/24 08:49:15;;;;;;;;;1.67;0.67;;;;;16.92;100.00;100606.47;4942496;28;45463;-75
2022/05/24 08:51:47;;;;;;;;;1.00;1.00;;;;;16.95;100.00;100603.75;4946636;28;45565;-73
2022/05/24 08:54:16;;;;;;;;;1.00;1.00;;;;;16.85;100.00;100596.81;4936455;28;46385;-73
2022/05/24 08:56:56;;;;;;;;;1.00;1.00;;;;;16.85;100.00;100602.16;4934754;28;47056;-75
2022/05/24 08:59:47;;;;;;;;;1.00;1.00;;;;;16.93;100.00;100597.53;4954959;28;45315;-75
2022/05/24 09:02:13;;;;;;;;;1.00;1.00;;;;;17.00;100.00;100607.22;5047410;23;45673;-74
2022/05/24 09:04:38;;;;;;;;;1.00;1.00;;;;;17.01;100.00;100608.97;5009100;28;49842;-75
2022/05/24 09:07:14;;;;;;;;;0.67;0.67;;;;;17.04;100.00;100603.56;5005962;28;45443;-74
2022/05/24 09:09:43;;;;;;;;;0.33;0.33;;;;;17.03;100.00;100604.47;5007317;28;45790;-74
2022/05/24 09:12:11;;;;;;;;;1.00;1.00;;;;;17.08;100.00;100610.59;5010953;28;45527;-73
2022/05/24 09:24:57;;;;;;;;;0.00;0.00;;;;;17.38;100.00;100618.91;5012977;28;46455;-73
2022/05/24 09:27:28;;;;;;;;;2.33;1.00;;;;;17.50;100.00;100599.97;5025784;28;46589;-73
2022/05/24 09:29:56;;;;;;;;;2.67;1.00;;;;;17.62;100.00;100618.38;5009356;28;45483;-74
2022/05/24 09:32:29;;;;;;;;;2.00;1.00;;;;;17.64;100.00;100616.59;5007422;28;45725;-74
2022/05/24 09:35:10;;;;;;;;;1.00;0.67;;;;;17.63;100.00;100620.19;5001864;28;45491;-74
2022/05/24 09:37:36;;;;;;;;;1.67;1.67;;;;;17.78;100.00;100619.84;5009405;28;48211;-74
2022/05/24 09:40:23;;;;;;;;;0.67;0.00;;;;;17.94;100.00;100620.38;5002386;28;45571;-76
2022/05/24 09:42:48;;;;;;;;;1.00;0.00;;;;;18.06;100.00;100621.91;5012148;28;45508;-74
2022/05/24 09:45:17;;;;;;;;;0.67;0.67;;;;;18.13;100.00;100620.84;5008613;28;45503;-75
2022/05/24 09:47:42;;;;;;;;;3.00;0.00;;;;;18.11;100.00;100619.13;5002453;28;46514;-74
2022/05/24 09:50:23;;;;;;;;;0.00;0.00;;;;;18.05;100.00;100622.81;5008470;28;46612;-74
2022/05/24 09:53:19;;;;;;;;;2.00;1.00;;;;;18.11;100.00;100640.50;5005116;28;45416;-74
2022/05/24 09:55:50;;;;;;;;;1.00;1.00;;;;;18.09;100.00;100632.53;4990896;28;45637;-75
2022/05/24 09:58:25;;;;;;;;;2.67;1.00;;;;;17.96;100.00;100637.28;5003773;28;46582;-74
2022/05/24 10:01:00;;;;;;;;;1.00;1.00;;;;;17.85;100.00;100633.97;5008223;28;45501;-74
2022/05/24 10:03:35;;;;;;;;;1.00;1.00;;;;;17.81;100.00;100626.94;5007614;28;45436;-73
2022/05/24 10:06:20;;;;;;;;;2.00;1.00;;;;;17.83;100.00;100627.75;5003505;28;45400;-74
2022/05/24 10:08:50;;;;;;;;;1.00;1.00;;;;;17.96;100.00;100631.94;5007398;28;46323;-73
2022/05/24 10:11:28;;;;;;;;;1.00;1.00;;;;;18.18;100.00;100632.31;5001905;28;45546;-74
2022/05/24 10:14:12;;;;;;;;;0.33;0.33;;;;;18.32;100.00;100638.22;5027380;28;45163;-73
2022/05/24 10:16:49;;;;;;;;;2.67;2.00;;;;;18.38;100.00;100642.53;5026743;28;45570;-73
2022/05/24 10:19:39;;;;;;;;;2.67;0.00;;;;;18.32;100.00;100640.91;5013100;28;46849;-74
2022/05/24 10:22:11;;;;;;;;;2.00;1.00;;;;;18.10;100.00;100634.28;5030482;28;45512;-72
2022/05/24 10:25:09;;;;;;;;;2.67;0.33;;;;;18.05;100.00;100636.16;5026065;28;45321;-75
2022/05/24 10:28:04;;;;;;;;;1.00;1.00;;;;;18.03;100.00;100638.88;5015182;28;45472;-73
2022/05/24 10:30:48;;;;;;;;;0.33;0.33;;;;;18.01;98.69;100632.72;5013546;28;46508;-74
2022/05/24 10:39:21;;;;;;;;;1.00;1.00;;;;;18.23;100.00;100629.53;5007791;28;45599;-73
2022/05/24 10:42:10;;;;;;;;;0.33;0.33;;;;;18.38;95.90;100637.19;5008739;28;45682;-74
2022/05/24 10:44:49;;;;;;;;;0.67;0.00;;;;;18.47;97.26;100642.28;5002791;28;45497;-73
2022/05/24 10:47:25;;;;;;;;;0.33;0.33;;;;;18.45;94.54;100628.09;5030204;28;45432;-75
2022/05/24 10:49:56;;;;;;;;;0.00;0.00;;;;;18.59;96.54;100644.69;5006920;28;45533;-73
2022/05/24 10:52:37;;;;;;;;;2.00;0.33;;;;;18.72;96.55;100631.91;5012648;28;46552;-77
2022/05/24 10:55:14;;;;;;;;;1.00;1.00;;;;;18.73;95.32;100636.34;5032827;28;45454;-74
2022/05/24 10:57:46;;;;;;;;;1.00;0.33;;;;;18.68;93.56;100640.03;5010458;28;45452;-76
2022/05/24 11:00:15;;;;;;;;;0.33;0.33;;;;;18.62;95.87;100635.69;5006800;28;45295;-75
2022/05/24 11:03:10;;;;;;;;;1.00;1.00;;;;;18.68;98.26;100634.69;5009973;28;47610;-76
2022/05/24 11:05:48;;;;;;;;;0.33;0.33;;;;;18.79;96.51;100640.63;5008846;28;45330;-73
2022/05/24 11:08:31;;;;;;;;;0.33;0.33;;;;;18.84;93.26;100647.63;5009208;28;45381;-75
2022/05/24 11:11:01;;;;;;;;;1.33;0.00;;;;;18.92;92.57;100643.91;5008978;28;45588;-76
2022/05/24 11:13:51;;;;;;;;;0.33;0.33;;;;;19.01;93.34;100652.53;5006657;28;45476;-74
2022/05/24 11:16:26;;;;;;;;;1.00;0.00;;;;;19.17;90.05;100639.63;5003774;28;45276;-73
2022/05/24 11:18:51;;;;;;;;;0.33;0.33;;;;;19.30;86.98;100643.72;5013916;28;45547;-72
2022/05/24 11:21:21;;;;;;;;;0.00;0.00;;;;;19.55;89.81;100643.91;5010324;28;57233;-73
2022/05/24 11:23:58;;;;;;;;;0.33;0.00;;;;;19.73;90.01;100637.16;4999044;28;45970;-73
2022/05/24 11:26:27;;;;;;;;;1.33;0.67;;;;;19.78;90.31;100632.53;5011912;28;45389;-73
2022/05/24 11:28:56;;;;;;;;;0.33;0.33;;;;;19.70;88.03;100642.59;5010771;28;45467;-73
2022/05/24 11:31:41;;;;;;;;;1.00;0.00;;;;;19.59;86.30;100647.41;5012852;28;45334;-73
2022/05/24 11:34:12;;;;;;;;;1.00;1.00;;;;;19.56;82.17;100636.75;5001386;28;45783;-73
2022/05/24 11:36:39;;;;;;;;;0.00;0.00;;;;;19.57;82.68;100635.81;4999199;28;45348;-73
2022/05/24 11:39:09;;;;;;;;;0.00;0.00;;;;;19.52;79.83;100635.97;5016461;28;45393;-73
2022/05/24 11:41:35;;;;;;;;;0.00;0.00;;;;;19.50;79.77;100635.13;5011718;28;45384;-73
2022/05/24 11:44:03;;;;;;;;;0.00;0.00;;;;;19.45;78.30;100638.88;5011972;28;63796;-72
2022/05/24 11:46:37;;;;;;;;;0.00;0.00;;;;;19.50;80.21;100636.94;5002820;28;45276;-72
2022/05/24 11:49:09;;;;;;;;;1.00;1.00;;;;;19.58;82.52;100634.91;5015511;28;45314;-72
2022/05/24 11:51:45;;;;;;;;;0.00;0.00;;;;;19.83;85.17;100635.97;5015549;28;45427;-72
2022/05/24 11:54:17;;;;;;;;;2.33;1.00;;;;;20.07;81.08;100639.69;5002627;28;46840;-73
2022/05/24 11:57:01;;;;;;;;;0.33;0.33;;;;;20.26;83.43;100640.00;5014439;28;45255;-72
2022/05/24 11:59:52;;;;;;;;;0.00;0.00;;;;;20.45;81.76;100639.38;5007671;28;45475;-73
2022/05/24 12:02:20;;;;;;;;;0.00;0.00;;;;;20.56;85.00;100643.53;5010928;28;45564;-73
2022/05/24 12:08:10;;;;;;;;;0.67;0.67;;;;;21.12;81.37;100648.72;5011078;28;45468;-72
2022/05/24 12:10:42;;;;;;;;;0.00;0.00;;;;;21.32;80.32;100648.06;5005940;28;45495;-74
2022/05/24 12:13:13;;;;;;;;;0.67;0.00;;;;;21.49;78.72;100657.31;5014719;28;45656;-73
2022/05/24 12:15:40;;;;;;;;;2.00;0.00;;;;;21.55;80.40;100647.19;5010472;28;45510;-74
2022/05/24 12:18:05;;;;;;;;;1.67;1.00;;;;;21.70;76.15;100638.56;5009507;28;45436;-74
2022/05/24 12:20:34;;;;;;;;;2.00;2.00;;;;;21.80;74.60;100641.78;5011003;28;45495;-73
2022/05/24 12:23:13;;;;;;;;;3.00;0.00;;;;;22.02;75.88;100646.31;5011504;28;45609;-73